sensor_id;sensor_type;location;lat;lon;timestamp;temperature;humidity
17170;DHT22;8700;48.222;16.342;2023-08-24T00:01:33;26.90;99.90
17170;DHT22;8700;48.222;16.342;2023-08-24T00:04:54;26.80;99.90
17170;DHT22;8700;48.222;16.342;2023-08-24T00:08:18;26.70;99.90
17170;DHT22;8700;48.222;16.342;2023-08-24T00:11:39;26.70;99.90
17170;DHT22;8700;48.222;16.342;2023-08-24T00:15:00;26.60;99.90
17170;DHT22;8700;48.222;16.342;2023-08-24T00:18:22;26.50;99.90
17170;DHT22;8700;48.222;16.342;2023-08-24T00:21:44;26.50;99.90
17170;DHT22;8700;48.222;16.342;2023-08-24T00:25:07;26.40;99.90
17170;DHT22;8700;48.222;16.342;2023-08-24T00:28:29;26.40;99.90
17170;DHT22;8700;48.222;16.342;2023-08-24T00:31:50;26.40;99.90
17170;DHT22;8700;48.222;16.342;2023-08-24T00:35:12;26.30;99.90
17170;DHT22;8700;48.222;16.342;2023-08-24T00:38:33;26.20;99.90
17170;DHT22;8700;48.222;16.342;2023-08-24T00:41:56;26.20;99.90
17170;DHT22;8700;48.222;16.342;2023-08-24T00:45:18;26.30;99.90
17170;DHT22;8700;48.222;16.342;2023-08-24T00:48:40;26.30;99.90
17170;DHT22;8700;48.222;16.342;2023-08-24T00:52:01;26.20;99.90
17170;DHT22;8700;48.222;16.342;2023-08-24T00:55:24;26.20;99.90
17170;DHT22;8700;48.222;16.342;2023-08-24T00:58:47;26.10;99.90
17170;DHT22;8700;48.222;16.342;2023-08-24T01:02:09;26.10;99.90
17170;DHT22;8700;48.222;16.342;2023-08-24T01:05:31;26.10;99.90
17170;DHT22;8700;48.222;16.342;2023-08-24T01:08:52;26.00;99.90
17170;DHT22;8700;48.222;16.342;2023-08-24T01:12:20;26.00;99.90
17170;DHT22;8700;48.222;16.342;2023-08-24T01:15:55;26.10;99.90
17170;DHT22;8700;48.222;16.342;2023-08-24T01:19:26;26.10;99.90
17170;DHT22;8700;48.222;16.342;2023-08-24T01:22:55;26.10;99.90
17170;DHT22;8700;48.222;16.342;2023-08-24T01:26:20;26.00;99.90
17170;DHT22;8700;48.222;16.342;2023-08-24T01:29:42;25.90;99.90
17170;DHT22;8700;48.222;16.342;2023-08-24T01:33:03;25.90;99.90
17170;DHT22;8700;48.222;16.342;2023-08-24T01:36:25;25.80;99.90
17170;DHT22;8700;48.222;16.342;2023-08-24T01:39:50;25.70;99.90
17170;DHT22;8700;48.222;16.342;2023-08-24T01:43:30;25.70;99.90
17170;DHT22;8700;48.222;16.342;2023-08-24T01:46:54;25.90;99.90
17170;DHT22;8700;48.222;16.342;2023-08-24T01:50:17;26.00;99.90
17170;DHT22;8700;48.222;16.342;2023-08-24T01:53:39;26.00;99.90
17170;DHT22;8700;48.222;16.342;2023-08-24T01:57:00;26.10;99.90
17170;DHT22;8700;48.222;16.342;2023-08-24T02:00:24;26.20;99.90
17170;DHT22;8700;48.222;16.342;2023-08-24T02:03:45;26.20;99.90
17170;DHT22;8700;48.222;16.342;2023-08-24T02:07:06;26.30;99.90
17170;DHT22;8700;48.222;16.342;2023-08-24T02:10:27;26.30;99.90
17170;DHT22;8700;48.222;16.342;2023-08-24T02:13:48;26.30;99.90
17170;DHT22;8700;48.222;16.342;2023-08-24T02:17:11;26.20;99.90
17170;DHT22;8700;48.222;16.342;2023-08-24T02:20:35;26.20;99.90
17170;DHT22;8700;48.222;16.342;2023-08-24T02:23:56;26.10;99.90
17170;DHT22;8700;48.222;16.342;2023-08-24T02:27:17;26.00;99.90
17170;DHT22;8700;48.222;16.342;2023-08-24T02:30:38;25.90;99.90
17170;DHT22;8700;48.222;16.342;2023-08-24T02:34:01;25.80;99.90
17170;DHT22;8700;48.222;16.342;2023-08-24T02:37:22;25.60;99.90
17170;DHT22;8700;48.222;16.342;2023-08-24T02:40:43;25.60;99.90
17170;DHT22;8700;48.222;16.342;2023-08-24T02:44:04;25.70;99.90
17170;DHT22;8700;48.222;16.342;2023-08-24T02:47:26;25.70;99.90
17170;DHT22;8700;48.222;16.342;2023-08-24T02:50:48;25.60;99.90
17170;DHT22;8700;48.222;16.342;2023-08-24T02:54:09;25.60;99.90
17170;DHT22;8700;48.222;16.342;2023-08-24T02:57:30;25.50;99.90
17170;DHT22;8700;48.222;16.342;2023-08-24T03:00:52;25.60;99.90
17170;DHT22;8700;48.222;16.342;2023-08-24T03:04:13;25.60;99.90
17170;DHT22;8700;48.222;16.342;2023-08-24T03:07:35;25.70;99.90
17170;DHT22;8700;48.222;16.342;2023-08-24T03:10:57;25.60;99.90
17170;DHT22;8700;48.222;16.342;2023-08-24T03:14:18;25.50;99.90
17170;DHT22;8700;48.222;16.342;2023-08-24T03:17:39;25.50;99.90
17170;DHT22;8700;48.222;16.342;2023-08-24T03:21:01;25.50;99.90
17170;DHT22;8700;48.222;16.342;2023-08-24T03:24:23;25.50;99.90
17170;DHT22;8700;48.222;16.342;2023-08-24T03:27:45;25.60;99.90
17170;DHT22;8700;48.222;16.342;2023-08-24T03:31:07;25.60;99.90
17170;DHT22;8700;48.222;16.342;2023-08-24T03:34:28;25.70;99.90
17170;DHT22;8700;48.222;16.342;2023-08-24T03:37:49;25.60;99.90
17170;DHT22;8700;48.222;16.342;2023-08-24T03:41:12;25.50;99.90
17170;DHT22;8700;48.222;16.342;2023-08-24T03:44:33;25.50;99.90
17170;DHT22;8700;48.222;16.342;2023-08-24T03:47:55;25.50;99.90
17170;DHT22;8700;48.222;16.342;2023-08-24T03:51:16;25.50;99.90
17170;DHT22;8700;48.222;16.342;2023-08-24T03:54:37;25.40;99.90
17170;DHT22;8700;48.222;16.342;2023-08-24T03:57:59;25.40;99.90
17170;DHT22;8700;48.222;16.342;2023-08-24T04:01:21;25.40;99.90
17170;DHT22;8700;48.222;16.342;2023-08-24T04:04:43;25.30;99.90
17170;DHT22;8700;48.222;16.342;2023-08-24T04:08:05;25.30;99.90
17170;DHT22;8700;48.222;16.342;2023-08-24T04:11:26;25.20;99.90
17170;DHT22;8700;48.222;16.342;2023-08-24T04:14:49;25.20;99.90
17170;DHT22;8700;48.222;16.342;2023-08-24T04:18:12;25.20;99.90
17170;DHT22;8700;48.222;16.342;2023-08-24T04:21:33;25.10;99.90
17170;DHT22;8700;48.222;16.342;2023-08-24T04:24:54;25.10;99.90
17170;DHT22;8700;48.222;16.342;2023-08-24T04:28:15;25.00;99.90
17170;DHT22;8700;48.222;16.342;2023-08-24T04:31:39;25.00;99.90
17170;DHT22;8700;48.222;16.342;2023-08-24T04:35:02;25.00;99.90
17170;DHT22;8700;48.222;16.342;2023-08-24T04:38:23;24.90;99.90
17170;DHT22;8700;48.222;16.342;2023-08-24T04:41:45;24.90;99.90
17170;DHT22;8700;48.222;16.342;2023-08-24T04:45:07;25.00;99.90
17170;DHT22;8700;48.222;16.342;2023-08-24T04:48:30;25.00;99.90
17170;DHT22;8700;48.222;16.342;2023-08-24T04:51:53;25.10;99.90
17170;DHT22;8700;48.222;16.342;2023-08-24T04:55:15;25.10;99.90
17170;DHT22;8700;48.222;16.342;2023-08-24T04:58:36;25.20;99.90
17170;DHT22;8700;48.222;16.342;2023-08-24T05:01:57;25.10;99.90
17170;DHT22;8700;48.222;16.342;2023-08-24T05:05:20;25.10;99.90
17170;DHT22;8700;48.222;16.342;2023-08-24T05:08:41;25.10;99.90
17170;DHT22;8700;48.222;16.342;2023-08-24T05:12:02;25.10;99.90
17170;DHT22;8700;48.222;16.342;2023-08-24T05:15:24;25.30;99.90
17170;DHT22;8700;48.222;16.342;2023-08-24T05:18:45;25.30;99.90
17170;DHT22;8700;48.222;16.342;2023-08-24T05:22:08;25.30;99.90
17170;DHT22;8700;48.222;16.342;2023-08-24T05:25:29;25.40;99.90
17170;DHT22;8700;48.222;16.342;2023-08-24T05:28:52;25.40;99.90
17170;DHT22;8700;48.222;16.342;2023-08-24T05:32:14;25.60;99.90
17170;DHT22;8700;48.222;16.342;2023-08-24T05:35:35;25.70;99.90
17170;DHT22;8700;48.222;16.342;2023-08-24T05:38:58;25.90;99.90
17170;DHT22;8700;48.222;16.342;2023-08-24T05:42:19;25.90;99.90
17170;DHT22;8700;48.222;16.342;2023-08-24T05:45:40;25.90;99.90
17170;DHT22;8700;48.222;16.342;2023-08-24T05:49:04;26.10;99.90
17170;DHT22;8700;48.222;16.342;2023-08-24T05:52:25;25.90;99.90
17170;DHT22;8700;48.222;16.342;2023-08-24T05:55:48;26.00;99.90
17170;DHT22;8700;48.222;16.342;2023-08-24T05:59:09;26.00;99.90
17170;DHT22;8700;48.222;16.342;2023-08-24T06:02:30;26.00;99.90
17170;DHT22;8700;48.222;16.342;2023-08-24T06:05:51;26.10;99.90
17170;DHT22;8700;48.222;16.342;2023-08-24T06:09:13;26.10;99.90
17170;DHT22;8700;48.222;16.342;2023-08-24T06:12:36;26.30;99.90
17170;DHT22;8700;48.222;16.342;2023-08-24T06:15:57;26.40;99.90
17170;DHT22;8700;48.222;16.342;2023-08-24T06:19:18;26.40;99.90
17170;DHT22;8700;48.222;16.342;2023-08-24T06:22:40;26.40;99.90
17170;DHT22;8700;48.222;16.342;2023-08-24T06:26:01;26.50;99.90
17170;DHT22;8700;48.222;16.342;2023-08-24T06:29:24;26.50;99.90
17170;DHT22;8700;48.222;16.342;2023-08-24T06:32:46;26.60;99.90
17170;DHT22;8700;48.222;16.342;2023-08-24T06:36:07;26.60;99.90
17170;DHT22;8700;48.222;16.342;2023-08-24T06:39:29;26.70;99.90
17170;DHT22;8700;48.222;16.342;2023-08-24T06:42:50;26.80;99.90
17170;DHT22;8700;48.222;16.342;2023-08-24T06:46:12;26.80;99.90
17170;DHT22;8700;48.222;16.342;2023-08-24T06:49:33;26.80;99.90
17170;DHT22;8700;48.222;16.342;2023-08-24T06:52:54;26.80;99.90
17170;DHT22;8700;48.222;16.342;2023-08-24T06:56:16;26.80;99.90
17170;DHT22;8700;48.222;16.342;2023-08-24T06:59:38;26.90;99.90
17170;DHT22;8700;48.222;16.342;2023-08-24T07:03:00;27.10;99.90
17170;DHT22;8700;48.222;16.342;2023-08-24T07:06:22;27.20;99.90
17170;DHT22;8700;48.222;16.342;2023-08-24T07:09:43;27.30;99.90
17170;DHT22;8700;48.222;16.342;2023-08-24T07:13:06;27.30;99.90
17170;DHT22;8700;48.222;16.342;2023-08-24T07:16:28;27.40;99.90
17170;DHT22;8700;48.222;16.342;2023-08-24T07:19:50;27.40;99.90
17170;DHT22;8700;48.222;16.342;2023-08-24T07:23:12;27.40;99.90
17170;DHT22;8700;48.222;16.342;2023-08-24T07:26:33;27.40;99.90
17170;DHT22;8700;48.222;16.342;2023-08-24T07:29:54;27.40;99.90
17170;DHT22;8700;48.222;16.342;2023-08-24T07:33:15;27.30;99.90
17170;DHT22;8700;48.222;16.342;2023-08-24T07:36:38;27.50;99.90
17170;DHT22;8700;48.222;16.342;2023-08-24T07:39:59;27.70;99.90
17170;DHT22;8700;48.222;16.342;2023-08-24T07:43:20;27.80;99.90
17170;DHT22;8700;48.222;16.342;2023-08-24T07:46:41;28.00;99.90
17170;DHT22;8700;48.222;16.342;2023-08-24T07:50:03;28.10;99.90
17170;DHT22;8700;48.222;16.342;2023-08-24T07:53:27;28.20;99.90
17170;DHT22;8700;48.222;16.342;2023-08-24T07:56:49;28.20;99.90
17170;DHT22;8700;48.222;16.342;2023-08-24T08:00:11;28.20;99.90
17170;DHT22;8700;48.222;16.342;2023-08-24T08:03:33;28.50;99.90
17170;DHT22;8700;48.222;16.342;2023-08-24T08:06:55;28.60;99.90
17170;DHT22;8700;48.222;16.342;2023-08-24T08:10:18;28.60;99.90
17170;DHT22;8700;48.222;16.342;2023-08-24T08:13:40;28.90;99.90
17170;DHT22;8700;48.222;16.342;2023-08-24T08:17:01;28.90;99.90
17170;DHT22;8700;48.222;16.342;2023-08-24T08:20:23;29.00;99.90
17170;DHT22;8700;48.222;16.342;2023-08-24T08:23:44;29.20;99.90
17170;DHT22;8700;48.222;16.342;2023-08-24T08:27:07;29.40;99.90
17170;DHT22;8700;48.222;16.342;2023-08-24T08:30:28;30.50;99.90
17170;DHT22;8700;48.222;16.342;2023-08-24T08:33:49;32.00;99.90
17170;DHT22;8700;48.222;16.342;2023-08-24T08:37:10;33.20;99.90
17170;DHT22;8700;48.222;16.342;2023-08-24T08:40:32;34.10;99.90
17170;DHT22;8700;48.222;16.342;2023-08-24T08:43:55;34.80;97.40
17170;DHT22;8700;48.222;16.342;2023-08-24T08:47:17;34.90;94.50
17170;DHT22;8700;48.222;16.342;2023-08-24T08:50:39;35.80;93.90
17170;DHT22;8700;48.222;16.342;2023-08-24T08:54:00;36.40;91.40
17170;DHT22;8700;48.222;16.342;2023-08-24T08:57:23;36.30;89.70
17170;DHT22;8700;48.222;16.342;2023-08-24T09:00:47;36.50;88.30
17170;DHT22;8700;48.222;16.342;2023-08-24T09:04:09;37.40;85.40
17170;DHT22;8700;48.222;16.342;2023-08-24T09:07:31;37.30;82.50
17170;DHT22;8700;48.222;16.342;2023-08-24T09:10:54;37.10;80.80
17170;DHT22;8700;48.222;16.342;2023-08-24T09:14:15;37.10;80.80
17170;DHT22;8700;48.222;16.342;2023-08-24T09:17:42;36.40;80.20
17170;DHT22;8700;48.222;16.342;2023-08-24T09:21:08;36.90;80.00
17170;DHT22;8700;48.222;16.342;2023-08-24T09:24:30;38.00;76.00
17170;DHT22;8700;48.222;16.342;2023-08-24T09:27:58;37.90;75.90
17170;DHT22;8700;48.222;16.342;2023-08-24T09:31:19;38.40;74.50
17170;DHT22;8700;48.222;16.342;2023-08-24T09:34:42;38.50;73.20
17170;DHT22;8700;48.222;16.342;2023-08-24T09:38:19;38.90;72.50
17170;DHT22;8700;48.222;16.342;2023-08-24T09:41:41;39.80;69.10
17170;DHT22;8700;48.222;16.342;2023-08-24T09:45:03;39.20;68.70
17170;DHT22;8700;48.222;16.342;2023-08-24T09:48:25;39.50;68.60
17170;DHT22;8700;48.222;16.342;2023-08-24T09:51:48;39.70;67.10
17170;DHT22;8700;48.222;16.342;2023-08-24T09:55:10;39.50;66.60
17170;DHT22;8700;48.222;16.342;2023-08-24T09:58:33;39.30;66.60
17170;DHT22;8700;48.222;16.342;2023-08-24T10:01:55;39.70;66.00
17170;DHT22;8700;48.222;16.342;2023-08-24T10:05:20;39.10;65.80
17170;DHT22;8700;48.222;16.342;2023-08-24T10:08:47;38.70;66.40
17170;DHT22;8700;48.222;16.342;2023-08-24T10:12:13;38.80;66.10
17170;DHT22;8700;48.222;16.342;2023-08-24T10:15:36;39.40;65.20
17170;DHT22;8700;48.222;16.342;2023-08-24T10:19:06;39.70;64.90
17170;DHT22;8700;48.222;16.342;2023-08-24T10:22:28;39.80;64.30
17170;DHT22;8700;48.222;16.342;2023-08-24T10:25:52;40.60;62.60
17170;DHT22;8700;48.222;16.342;2023-08-24T10:29:15;40.80;62.00
17170;DHT22;8700;48.222;16.342;2023-08-24T10:32:37;40.60;61.60
17170;DHT22;8700;48.222;16.342;2023-08-24T10:35:58;40.50;61.70
17170;DHT22;8700;48.222;16.342;2023-08-24T10:39:27;40.60;61.40
17170;DHT22;8700;48.222;16.342;2023-08-24T10:42:49;40.20;61.20
17170;DHT22;8700;48.222;16.342;2023-08-24T10:46:14;40.20;61.60
17170;DHT22;8700;48.222;16.342;2023-08-24T10:49:36;40.80;60.30
17170;DHT22;8700;48.222;16.342;2023-08-24T10:52:58;41.40;59.80
17170;DHT22;8700;48.222;16.342;2023-08-24T10:56:20;41.30;59.80
17170;DHT22;8700;48.222;16.342;2023-08-24T10:59:43;41.30;59.30
17170;DHT22;8700;48.222;16.342;2023-08-24T11:03:04;40.50;60.00
17170;DHT22;8700;48.222;16.342;2023-08-24T11:06:26;40.70;59.50
17170;DHT22;8700;48.222;16.342;2023-08-24T11:09:48;40.40;59.60
17170;DHT22;8700;48.222;16.342;2023-08-24T11:13:11;40.10;59.80
17170;DHT22;8700;48.222;16.342;2023-08-24T11:16:41;40.30;59.90
17170;DHT22;8700;48.222;16.342;2023-08-24T11:20:03;40.50;59.70
17170;DHT22;8700;48.222;16.342;2023-08-24T11:23:25;40.40;59.40
17170;DHT22;8700;48.222;16.342;2023-08-24T11:26:48;40.30;59.60
17170;DHT22;8700;48.222;16.342;2023-08-24T11:30:10;40.40;59.40
17170;DHT22;8700;48.222;16.342;2023-08-24T11:33:33;40.80;59.20
17170;DHT22;8700;48.222;16.342;2023-08-24T11:36:55;40.90;58.80
17170;DHT22;8700;48.222;16.342;2023-08-24T11:40:17;39.40;59.90
17170;DHT22;8700;48.222;16.342;2023-08-24T11:43:39;39.30;60.30
17170;DHT22;8700;48.222;16.342;2023-08-24T11:47:00;40.40;59.50
17170;DHT22;8700;48.222;16.342;2023-08-24T11:50:23;39.80;59.40
17170;DHT22;8700;48.222;16.342;2023-08-24T11:53:45;39.00;59.80
17170;DHT22;8700;48.222;16.342;2023-08-24T11:57:07;38.80;59.90
17170;DHT22;8700;48.222;16.342;2023-08-24T12:00:28;38.10;60.50
17170;DHT22;8700;48.222;16.342;2023-08-24T12:03:50;37.40;61.30
17170;DHT22;8700;48.222;16.342;2023-08-24T12:07:13;36.80;62.50
17170;DHT22;8700;48.222;16.342;2023-08-24T12:10:35;36.80;62.30
17170;DHT22;8700;48.222;16.342;2023-08-24T12:14:01;36.80;62.00
17170;DHT22;8700;48.222;16.342;2023-08-24T12:17:23;36.00;62.90
17170;DHT22;8700;48.222;16.342;2023-08-24T12:20:44;35.80;63.10
17170;DHT22;8700;48.222;16.342;2023-08-24T12:24:07;35.80;63.50
17170;DHT22;8700;48.222;16.342;2023-08-24T12:27:28;36.10;62.90
17170;DHT22;8700;48.222;16.342;2023-08-24T12:30:51;35.70;63.30
17170;DHT22;8700;48.222;16.342;2023-08-24T12:34:15;35.10;64.70
17170;DHT22;8700;48.222;16.342;2023-08-24T12:37:36;34.30;66.10
17170;DHT22;8700;48.222;16.342;2023-08-24T12:40:59;34.70;65.70
17170;DHT22;8700;48.222;16.342;2023-08-24T12:44:20;35.20;65.40
17170;DHT22;8700;48.222;16.342;2023-08-24T12:47:41;35.20;64.10
17170;DHT22;8700;48.222;16.342;2023-08-24T12:51:03;35.20;64.50
17170;DHT22;8700;48.222;16.342;2023-08-24T12:54:24;35.30;64.40
17170;DHT22;8700;48.222;16.342;2023-08-24T12:57:47;35.20;64.00
17170;DHT22;8700;48.222;16.342;2023-08-24T13:01:08;35.00;64.80
17170;DHT22;8700;48.222;16.342;2023-08-24T13:04:29;35.30;64.40
17170;DHT22;8700;48.222;16.342;2023-08-24T13:07:52;35.40;64.20
17170;DHT22;8700;48.222;16.342;2023-08-24T13:11:13;35.30;64.60
17170;DHT22;8700;48.222;16.342;2023-08-24T13:14:35;35.30;64.10
17170;DHT22;8700;48.222;16.342;2023-08-24T13:17:56;35.00;64.90
17170;DHT22;8700;48.222;16.342;2023-08-24T13:21:17;35.00;64.50
17170;DHT22;8700;48.222;16.342;2023-08-24T13:24:39;35.10;64.30
17170;DHT22;8700;48.222;16.342;2023-08-24T13:28:00;35.30;64.30
17170;DHT22;8700;48.222;16.342;2023-08-24T13:31:22;35.50;63.50
17170;DHT22;8700;48.222;16.342;2023-08-24T13:34:44;35.50;63.50
17170;DHT22;8700;48.222;16.342;2023-08-24T13:38:05;35.70;63.80
17170;DHT22;8700;48.222;16.342;2023-08-24T13:41:26;35.90;63.70
17170;DHT22;8700;48.222;16.342;2023-08-24T13:44:47;35.80;63.80
17170;DHT22;8700;48.222;16.342;2023-08-24T13:48:10;35.40;64.50
17170;DHT22;8700;48.222;16.342;2023-08-24T13:51:31;35.70;64.30
17170;DHT22;8700;48.222;16.342;2023-08-24T13:54:52;35.90;63.80
17170;DHT22;8700;48.222;16.342;2023-08-24T13:58:13;35.90;63.70
17170;DHT22;8700;48.222;16.342;2023-08-24T14:01:34;35.90;64.10
17170;DHT22;8700;48.222;16.342;2023-08-24T14:04:57;36.10;63.40
17170;DHT22;8700;48.222;16.342;2023-08-24T14:08:18;35.90;63.70
17170;DHT22;8700;48.222;16.342;2023-08-24T14:11:39;35.60;64.40
17170;DHT22;8700;48.222;16.342;2023-08-24T14:15:01;35.80;64.20
17170;DHT22;8700;48.222;16.342;2023-08-24T14:18:22;36.00;64.10
17170;DHT22;8700;48.222;16.342;2023-08-24T14:21:45;36.00;64.00
17170;DHT22;8700;48.222;16.342;2023-08-24T14:25:07;35.90;64.10
17170;DHT22;8700;48.222;16.342;2023-08-24T14:28:47;35.70;64.30
17170;DHT22;8700;48.222;16.342;2023-08-24T14:32:08;35.40;64.80
17170;DHT22;8700;48.222;16.342;2023-08-24T14:35:30;35.40;65.00
17170;DHT22;8700;48.222;16.342;2023-08-24T14:38:53;35.40;65.00
17170;DHT22;8700;48.222;16.342;2023-08-24T14:42:14;35.50;65.10
17170;DHT22;8700;48.222;16.342;2023-08-24T14:45:36;35.40;65.30
17170;DHT22;8700;48.222;16.342;2023-08-24T14:48:57;35.40;65.80
17170;DHT22;8700;48.222;16.342;2023-08-24T14:52:19;35.30;66.00
17170;DHT22;8700;48.222;16.342;2023-08-24T14:55:41;35.40;65.60
17170;DHT22;8700;48.222;16.342;2023-08-24T14:59:03;35.00;66.50
17170;DHT22;8700;48.222;16.342;2023-08-24T15:02:24;34.60;67.00
17170;DHT22;8700;48.222;16.342;2023-08-24T15:05:55;35.00;66.70
17170;DHT22;8700;48.222;16.342;2023-08-24T15:09:16;34.90;66.60
17170;DHT22;8700;48.222;16.342;2023-08-24T15:12:39;34.50;68.00
17170;DHT22;8700;48.222;16.342;2023-08-24T15:16:00;34.20;68.30
17170;DHT22;8700;48.222;16.342;2023-08-24T15:19:21;34.30;68.30
17170;DHT22;8700;48.222;16.342;2023-08-24T15:22:42;34.30;68.20
17170;DHT22;8700;48.222;16.342;2023-08-24T15:26:03;34.20;68.50
17170;DHT22;8700;48.222;16.342;2023-08-24T15:29:26;34.10;68.70
17170;DHT22;8700;48.222;16.342;2023-08-24T15:32:47;34.10;69.10
17170;DHT22;8700;48.222;16.342;2023-08-24T15:36:08;34.30;69.60
17170;DHT22;8700;48.222;16.342;2023-08-24T15:39:35;34.20;69.30
17170;DHT22;8700;48.222;16.342;2023-08-24T15:42:57;34.20;69.60
17170;DHT22;8700;48.222;16.342;2023-08-24T15:46:20;34.10;70.20
17170;DHT22;8700;48.222;16.342;2023-08-24T15:49:41;34.30;70.10
17170;DHT22;8700;48.222;16.342;2023-08-24T15:53:03;34.20;70.20
17170;DHT22;8700;48.222;16.342;2023-08-24T15:56:26;33.90;70.70
17170;DHT22;8700;48.222;16.342;2023-08-24T15:59:47;33.70;71.70
17170;DHT22;8700;48.222;16.342;2023-08-24T16:03:09;33.50;71.80
17170;DHT22;8700;48.222;16.342;2023-08-24T16:06:31;33.50;71.80
17170;DHT22;8700;48.222;16.342;2023-08-24T16:09:52;33.50;72.50
17170;DHT22;8700;48.222;16.342;2023-08-24T16:13:14;33.30;73.70
17170;DHT22;8700;48.222;16.342;2023-08-24T16:16:35;33.30;74.30
17170;DHT22;8700;48.222;16.342;2023-08-24T16:19:57;33.50;73.90
17170;DHT22;8700;48.222;16.342;2023-08-24T16:23:18;33.30;74.10
17170;DHT22;8700;48.222;16.342;2023-08-24T16:26:40;33.20;74.70
17170;DHT22;8700;48.222;16.342;2023-08-24T16:30:01;33.00;75.40
17170;DHT22;8700;48.222;16.342;2023-08-24T16:33:23;32.90;75.80
17170;DHT22;8700;48.222;16.342;2023-08-24T16:36:45;33.00;75.60
17170;DHT22;8700;48.222;16.342;2023-08-24T16:40:08;32.90;76.00
17170;DHT22;8700;48.222;16.342;2023-08-24T16:43:29;32.80;76.50
17170;DHT22;8700;48.222;16.342;2023-08-24T16:46:50;32.60;77.30
17170;DHT22;8700;48.222;16.342;2023-08-24T16:50:11;32.50;77.80
17170;DHT22;8700;48.222;16.342;2023-08-24T16:53:34;32.50;78.20
17170;DHT22;8700;48.222;16.342;2023-08-24T16:56:56;32.60;78.20
17170;DHT22;8700;48.222;16.342;2023-08-24T17:00:18;32.40;78.60
17170;DHT22;8700;48.222;16.342;2023-08-24T17:03:39;32.30;79.00
17170;DHT22;8700;48.222;16.342;2023-08-24T17:07:00;32.20;80.10
17170;DHT22;8700;48.222;16.342;2023-08-24T17:10:23;32.00;80.00
17170;DHT22;8700;48.222;16.342;2023-08-24T17:13:45;31.90;80.50
17170;DHT22;8700;48.222;16.342;2023-08-24T17:17:06;31.70;81.00
17170;DHT22;8700;48.222;16.342;2023-08-24T17:20:27;31.50;81.80
17170;DHT22;8700;48.222;16.342;2023-08-24T17:23:49;31.30;82.70
17170;DHT22;8700;48.222;16.342;2023-08-24T17:27:11;31.20;83.00
17170;DHT22;8700;48.222;16.342;2023-08-24T17:30:32;31.20;83.40
17170;DHT22;8700;48.222;16.342;2023-08-24T17:33:54;31.00;83.90
17170;DHT22;8700;48.222;16.342;2023-08-24T17:37:15;30.90;84.50
17170;DHT22;8700;48.222;16.342;2023-08-24T17:40:37;30.90;85.10
17170;DHT22;8700;48.222;16.342;2023-08-24T17:44:02;30.90;85.10
17170;DHT22;8700;48.222;16.342;2023-08-24T17:47:24;31.00;85.40
17170;DHT22;8700;48.222;16.342;2023-08-24T17:50:51;31.00;85.40
17170;DHT22;8700;48.222;16.342;2023-08-24T17:54:13;31.30;85.50
17170;DHT22;8700;48.222;16.342;2023-08-24T17:57:34;31.20;85.70
17170;DHT22;8700;48.222;16.342;2023-08-24T18:00:57;31.00;86.40
17170;DHT22;8700;48.222;16.342;2023-08-24T18:04:20;31.00;86.40
17170;DHT22;8700;48.222;16.342;2023-08-24T18:07:41;30.90;87.30
17170;DHT22;8700;48.222;16.342;2023-08-24T18:11:03;30.80;87.50
17170;DHT22;8700;48.222;16.342;2023-08-24T18:14:25;30.80;88.20
17170;DHT22;8700;48.222;16.342;2023-08-24T18:17:47;30.60;88.50
17170;DHT22;8700;48.222;16.342;2023-08-24T18:21:09;30.60;89.10
17170;DHT22;8700;48.222;16.342;2023-08-24T18:24:30;30.50;89.50
17170;DHT22;8700;48.222;16.342;2023-08-24T18:27:52;30.50;89.70
17170;DHT22;8700;48.222;16.342;2023-08-24T18:31:13;30.50;90.00
17170;DHT22;8700;48.222;16.342;2023-08-24T18:34:35;30.70;90.00
17170;DHT22;8700;48.222;16.342;2023-08-24T18:37:57;30.60;90.20
17170;DHT22;8700;48.222;16.342;2023-08-24T18:41:18;30.40;90.50
17170;DHT22;8700;48.222;16.342;2023-08-24T18:44:39;30.50;90.70
17170;DHT22;8700;48.222;16.342;2023-08-24T18:48:01;30.50;90.90
17170;DHT22;8700;48.222;16.342;2023-08-24T18:51:24;30.50;91.10
17170;DHT22;8700;48.222;16.342;2023-08-24T18:54:45;30.40;91.40
17170;DHT22;8700;48.222;16.342;2023-08-24T18:58:06;30.40;91.60
17170;DHT22;8700;48.222;16.342;2023-08-24T19:01:28;30.40;91.60
17170;DHT22;8700;48.222;16.342;2023-08-24T19:04:50;30.40;91.70
17170;DHT22;8700;48.222;16.342;2023-08-24T19:08:13;30.20;92.20
17170;DHT22;8700;48.222;16.342;2023-08-24T19:11:36;30.10;92.60
17170;DHT22;8700;48.222;16.342;2023-08-24T19:14:59;30.00;92.90
17170;DHT22;8700;48.222;16.342;2023-08-24T19:18:20;29.90;93.30
17170;DHT22;8700;48.222;16.342;2023-08-24T19:21:41;30.00;93.40
17170;DHT22;8700;48.222;16.342;2023-08-24T19:25:04;30.20;93.40
17170;DHT22;8700;48.222;16.342;2023-08-24T19:28:28;30.20;93.30
17170;DHT22;8700;48.222;16.342;2023-08-24T19:31:49;30.10;93.50
17170;DHT22;8700;48.222;16.342;2023-08-24T19:35:10;29.80;94.00
17170;DHT22;8700;48.222;16.342;2023-08-24T19:38:31;29.70;94.50
17170;DHT22;8700;48.222;16.342;2023-08-24T19:41:54;29.60;94.70
17170;DHT22;8700;48.222;16.342;2023-08-24T19:45:15;29.60;95.00
17170;DHT22;8700;48.222;16.342;2023-08-24T19:48:37;29.50;95.30
17170;DHT22;8700;48.222;16.342;2023-08-24T19:51:58;29.40;95.60
17170;DHT22;8700;48.222;16.342;2023-08-24T19:55:19;29.50;95.70
17170;DHT22;8700;48.222;16.342;2023-08-24T19:58:42;29.50;95.70
17170;DHT22;8700;48.222;16.342;2023-08-24T20:02:03;29.20;96.50
17170;DHT22;8700;48.222;16.342;2023-08-24T20:05:25;29.10;96.80
17170;DHT22;8700;48.222;16.342;2023-08-24T20:08:46;29.10;97.00
17170;DHT22;8700;48.222;16.342;2023-08-24T20:12:07;29.00;97.40
17170;DHT22;8700;48.222;16.342;2023-08-24T20:15:30;29.00;97.80
17170;DHT22;8700;48.222;16.342;2023-08-24T20:18:53;28.90;98.10
17170;DHT22;8700;48.222;16.342;2023-08-24T20:22:17;28.80;98.40
17170;DHT22;8700;48.222;16.342;2023-08-24T20:25:38;28.80;98.80
17170;DHT22;8700;48.222;16.342;2023-08-24T20:29:01;28.70;99.10
17170;DHT22;8700;48.222;16.342;2023-08-24T20:32:24;28.70;99.40
17170;DHT22;8700;48.222;16.342;2023-08-24T20:35:45;28.60;99.70
17170;DHT22;8700;48.222;16.342;2023-08-24T20:39:06;28.40;99.90
17170;DHT22;8700;48.222;16.342;2023-08-24T20:42:30;28.30;99.90
17170;DHT22;8700;48.222;16.342;2023-08-24T20:45:51;28.20;99.90
17170;DHT22;8700;48.222;16.342;2023-08-24T20:49:13;28.30;99.90
17170;DHT22;8700;48.222;16.342;2023-08-24T20:52:34;28.20;99.90
17170;DHT22;8700;48.222;16.342;2023-08-24T20:55:55;28.30;99.90
17170;DHT22;8700;48.222;16.342;2023-08-24T20:59:17;28.30;99.90
17170;DHT22;8700;48.222;16.342;2023-08-24T21:02:38;28.30;99.90
17170;DHT22;8700;48.222;16.342;2023-08-24T21:06:01;28.20;99.90
17170;DHT22;8700;48.222;16.342;2023-08-24T21:09:22;28.30;99.90
17170;DHT22;8700;48.222;16.342;2023-08-24T21:12:43;28.20;99.90
17170;DHT22;8700;48.222;16.342;2023-08-24T21:16:05;28.20;99.90